createdAt,value
2019-01-04T00:00:23.617Z,1027.49
2019-01-04T00:01:23.613Z,1027.48
2019-01-04T00:02:23.597Z,1027.51
2019-01-04T00:03:23.584Z,1027.50
2019-01-04T00:04:23.575Z,1027.51
2019-01-04T00:05:23.563Z,1027.54
2019-01-04T00:06:23.548Z,1027.52
2019-01-04T00:07:23.543Z,1027.53
2019-01-04T00:08:23.533Z,1027.48
2019-01-04T00:09:23.522Z,1027.49
2019-01-04T00:10:23.514Z,1027.51
2019-01-04T00:11:23.503Z,1027.51
2019-01-04T00:12:23.489Z,1027.55
2019-01-04T00:13:23.478Z,1027.55
2019-01-04T00:14:23.468Z,1027.48
2019-01-04T00:15:23.453Z,1027.48
2019-01-04T00:16:23.443Z,1027.48
2019-01-04T00:17:23.440Z,1027.45
2019-01-04T00:18:23.427Z,1027.45
2019-01-04T00:19:23.417Z,1027.45
2019-01-04T00:20:23.408Z,1027.43
2019-01-04T00:21:23.398Z,1027.42
2019-01-04T00:22:23.384Z,1027.42
2019-01-04T00:23:23.372Z,1027.44
2019-01-04T00:24:23.361Z,1027.41
2019-01-04T00:25:23.352Z,1027.46
2019-01-04T00:26:23.343Z,1027.51
2019-01-04T00:27:23.328Z,1027.43
2019-01-04T00:28:23.328Z,1027.47
2019-01-04T00:29:23.310Z,1027.51
2019-01-04T00:30:23.305Z,1027.45
2019-01-04T00:31:23.293Z,1027.45
2019-01-04T00:32:23.275Z,1027.43
2019-01-04T00:33:23.266Z,1027.41
2019-01-04T00:34:23.254Z,1027.39
2019-01-04T00:35:23.247Z,1027.40
2019-01-04T00:36:23.237Z,1027.44
2019-01-04T00:37:23.243Z,1027.42
2019-01-04T00:38:23.222Z,1027.39
2019-01-04T00:39:23.197Z,1027.40
2019-01-04T00:40:23.189Z,1027.39
2019-01-04T00:41:23.178Z,1027.40
2019-01-04T00:42:23.167Z,1027.40
2019-01-04T00:43:23.156Z,1027.36
2019-01-04T00:44:23.143Z,1027.37
2019-01-04T00:45:23.138Z,1027.39
2019-01-04T00:46:23.127Z,1027.41
2019-01-04T00:47:23.119Z,1027.34
2019-01-04T00:48:23.103Z,1027.30
2019-01-04T00:49:23.100Z,1027.28
2019-01-04T00:50:23.080Z,1027.30
2019-01-04T00:51:23.073Z,1027.29
2019-01-04T00:52:23.067Z,1027.33
2019-01-04T00:53:23.055Z,1027.31
2019-01-04T00:54:23.048Z,1027.25
2019-01-04T00:55:23.034Z,1027.23
2019-01-04T00:56:23.021Z,1027.28
2019-01-04T00:57:23.007Z,1027.23
2019-01-04T00:58:23.000Z,1027.20
2019-01-04T00:59:23.020Z,1027.26
2019-01-04T01:00:22.975Z,1027.26
2019-01-04T01:01:22.969Z,1027.30
2019-01-04T01:02:22.955Z,1027.26
2019-01-04T01:03:22.946Z,1027.26
2019-01-04T01:04:22.937Z,1027.25
2019-01-04T01:05:22.925Z,1027.23
2019-01-04T01:06:22.915Z,1027.22
2019-01-04T01:07:22.901Z,1027.21
2019-01-04T01:08:22.897Z,1027.19
2019-01-04T01:09:22.885Z,1027.22
2019-01-04T01:10:22.868Z,1027.20
2019-01-04T01:11:22.861Z,1027.25
2019-01-04T01:12:22.847Z,1027.26
2019-01-04T01:13:22.844Z,1027.28
2019-01-04T01:14:22.827Z,1027.28
2019-01-04T01:15:22.818Z,1027.28
2019-01-04T01:16:22.814Z,1027.32
2019-01-04T01:17:22.799Z,1027.33
2019-01-04T01:18:22.783Z,1027.35
2019-01-04T01:19:22.775Z,1027.36
2019-01-04T01:20:22.766Z,1027.38
2019-01-04T01:21:22.752Z,1027.38
2019-01-04T01:22:22.742Z,1027.41
2019-01-04T01:23:22.748Z,1027.35
2019-01-04T01:24:22.724Z,1027.34
2019-01-04T01:25:22.711Z,1027.39
2019-01-04T01:26:22.705Z,1027.35
2019-01-04T01:27:22.695Z,1027.38
2019-01-04T01:28:22.675Z,1027.31
2019-01-04T01:29:22.675Z,1027.30
2019-01-04T01:30:22.656Z,1027.31
2019-01-04T01:31:22.646Z,1027.26
2019-01-04T01:32:22.641Z,1027.30
2019-01-04T01:33:22.623Z,1027.28
2019-01-04T01:34:22.613Z,1027.29
2019-01-04T01:35:22.605Z,1027.25
2019-01-04T01:36:22.609Z,1027.34
2019-01-04T01:37:22.599Z,1027.36
2019-01-04T01:38:22.573Z,1027.34
2019-01-04T01:39:22.557Z,1027.32
2019-01-04T01:40:22.547Z,1027.34
2019-01-04T01:41:22.541Z,1027.32
2019-01-04T01:42:22.531Z,1027.27
2019-01-04T01:43:22.516Z,1027.29
2019-01-04T01:44:22.511Z,1027.26
2019-01-04T01:45:22.496Z,1027.22
2019-01-04T01:46:22.500Z,1027.23
2019-01-04T01:47:22.473Z,1027.21
2019-01-04T01:48:22.463Z,1027.16
2019-01-04T01:49:22.452Z,1027.17
2019-01-04T01:50:22.447Z,1027.11
2019-01-04T01:51:22.460Z,1027.10
2019-01-04T01:52:22.422Z,1027.14
2019-01-04T01:53:22.420Z,1027.10
2019-01-04T01:54:22.401Z,1027.15
2019-01-04T01:55:22.387Z,1027.08
2019-01-04T01:56:22.373Z,1027.15
2019-01-04T01:57:22.365Z,1027.11
2019-01-04T01:58:22.354Z,1027.07
2019-01-04T01:59:22.351Z,1027.04
2019-01-04T02:00:22.333Z,1026.96
2019-01-04T02:01:22.345Z,1026.89
2019-01-04T02:02:22.315Z,1026.89
2019-01-04T02:03:22.307Z,1026.92
2019-01-04T02:04:22.288Z,1026.95
2019-01-04T02:05:22.285Z,1026.89
2019-01-04T02:06:22.273Z,1026.91
2019-01-04T02:07:22.259Z,1026.89
2019-01-04T02:08:22.249Z,1026.91
2019-01-04T02:09:22.239Z,1026.92
2019-01-04T02:10:22.230Z,1026.97
2019-01-04T02:11:22.222Z,1026.96
2019-01-04T02:12:22.212Z,1026.98
2019-01-04T02:13:22.203Z,1026.93
2019-01-04T02:14:22.189Z,1026.95
2019-01-04T02:15:22.171Z,1026.96
2019-01-04T02:16:22.164Z,1026.97
2019-01-04T02:17:22.158Z,1026.97
2019-01-04T02:18:22.145Z,1026.92
2019-01-04T02:19:22.127Z,1026.89
2019-01-04T02:20:22.116Z,1026.86
2019-01-04T02:21:22.115Z,1026.85
2019-01-04T02:22:22.105Z,1026.83
2019-01-04T02:23:22.090Z,1026.81
2019-01-04T02:24:22.082Z,1026.84
2019-01-04T02:25:22.069Z,1026.81
2019-01-04T02:26:22.053Z,1026.82
2019-01-04T02:27:22.050Z,1026.79
2019-01-04T02:28:22.035Z,1026.76
2019-01-04T02:29:22.025Z,1026.76
2019-01-04T02:30:22.016Z,1026.77
2019-01-04T02:31:22.005Z,1026.73
2019-01-04T02:32:22.000Z,1026.80
2019-01-04T02:33:21.982Z,1026.75
2019-01-04T02:34:21.981Z,1026.75
2019-01-04T02:35:21.974Z,1026.69
2019-01-04T02:36:21.951Z,1026.72
2019-01-04T02:37:21.936Z,1026.72
2019-01-04T02:38:21.925Z,1026.70
2019-01-04T02:39:21.914Z,1026.68
2019-01-04T02:40:21.907Z,1026.66
2019-01-04T02:41:21.900Z,1026.68
2019-01-04T02:42:21.890Z,1026.62
2019-01-04T02:43:21.884Z,1026.56
2019-01-04T02:44:21.863Z,1026.59
2019-01-04T02:45:21.868Z,1026.57
2019-01-04T02:46:21.844Z,1026.57
2019-01-04T02:47:21.835Z,1026.51
2019-01-04T02:48:21.828Z,1026.51
2019-01-04T02:49:21.811Z,1026.51
2019-01-04T02:50:21.799Z,1026.47
2019-01-04T02:51:21.788Z,1026.49
2019-01-04T02:52:21.786Z,1026.43
2019-01-04T02:53:21.768Z,1026.35
2019-01-04T02:54:21.759Z,1026.43
2019-01-04T02:55:21.747Z,1026.40
2019-01-04T02:56:21.741Z,1026.39
2019-01-04T02:57:21.722Z,1026.35
2019-01-04T02:58:21.729Z,1026.27
2019-01-04T02:59:21.707Z,1026.27
2019-01-04T03:00:21.701Z,1026.26
2019-01-04T03:01:21.685Z,1026.31
2019-01-04T03:02:21.679Z,1026.32
2019-01-04T03:03:21.664Z,1026.26
2019-01-04T03:04:21.655Z,1026.31
2019-01-04T03:05:21.643Z,1026.30
2019-01-04T03:06:21.631Z,1026.33
2019-01-04T03:07:21.623Z,1026.31
2019-01-04T03:08:21.633Z,1026.30
2019-01-04T03:09:21.605Z,1026.36
2019-01-04T03:10:21.587Z,1026.34
2019-01-04T03:11:21.577Z,1026.35
2019-01-04T03:12:21.565Z,1026.28
2019-01-04T03:13:21.556Z,1026.25
2019-01-04T03:14:21.549Z,1026.22
2019-01-04T03:15:21.536Z,1026.23
2019-01-04T03:16:21.517Z,1026.23
2019-01-04T03:17:21.511Z,1026.21
2019-01-04T03:18:21.500Z,1026.19
2019-01-04T03:19:21.498Z,1026.10
2019-01-04T03:20:21.483Z,1026.13
2019-01-04T03:21:21.471Z,1026.14
2019-01-04T03:22:21.459Z,1026.07
2019-01-04T03:23:21.451Z,1026.13
2019-01-04T03:24:21.443Z,1026.11
2019-01-04T03:25:21.427Z,1026.03
2019-01-04T03:26:21.427Z,1026.04
2019-01-04T03:27:21.405Z,1026.01
2019-01-04T03:28:21.399Z,1025.95
2019-01-04T03:29:21.384Z,1025.96
2019-01-04T03:30:21.377Z,1025.97
2019-01-04T03:31:21.373Z,1025.92
2019-01-04T03:32:21.352Z,1025.89
2019-01-04T03:33:21.347Z,1025.84
2019-01-04T03:34:21.329Z,1025.85
2019-01-04T03:35:21.320Z,1025.82
2019-01-04T03:36:21.311Z,1025.80
2019-01-04T03:37:21.299Z,1025.80
2019-01-04T03:38:21.286Z,1025.72
2019-01-04T03:39:21.293Z,1025.75
2019-01-04T03:40:21.265Z,1025.71
2019-01-04T03:41:21.257Z,1025.68
2019-01-04T03:42:21.248Z,1025.68
2019-01-04T03:43:21.233Z,1025.64
2019-01-04T03:44:21.239Z,1025.66
2019-01-04T03:45:21.217Z,1025.67
2019-01-04T03:46:21.204Z,1025.64
2019-01-04T03:47:21.189Z,1025.58
2019-01-04T03:48:21.177Z,1025.61
2019-01-04T03:49:21.171Z,1025.54
2019-01-04T03:50:21.157Z,1025.54
2019-01-04T03:51:21.149Z,1025.54
2019-01-04T03:52:21.153Z,1025.52
2019-01-04T03:53:21.129Z,1025.50
2019-01-04T03:54:21.117Z,1025.48
2019-01-04T03:55:21.104Z,1025.48
2019-01-04T03:56:21.098Z,1025.41
2019-01-04T03:57:21.097Z,1025.42
2019-01-04T03:58:21.080Z,1025.37
2019-01-04T03:59:21.067Z,1025.32
2019-01-04T04:00:21.058Z,1025.31
2019-01-04T04:01:21.044Z,1025.35
2019-01-04T04:02:21.035Z,1025.31
2019-01-04T04:03:21.024Z,1025.40
2019-01-04T04:04:21.014Z,1025.34
2019-01-04T04:05:21.001Z,1025.38
2019-01-04T04:06:20.995Z,1025.37
2019-01-04T04:07:20.992Z,1025.34
2019-01-04T04:08:20.979Z,1025.34
2019-01-04T04:09:20.957Z,1025.36
2019-01-04T04:10:20.948Z,1025.36
2019-01-04T04:11:20.946Z,1025.31
2019-01-04T04:12:20.929Z,1025.30
2019-01-04T04:13:20.911Z,1025.27
2019-01-04T04:14:20.909Z,1025.25
2019-01-04T04:15:20.919Z,1025.30
2019-01-04T04:16:20.881Z,1025.20
2019-01-04T04:17:20.873Z,1025.20
2019-01-04T04:18:20.862Z,1025.18
2019-01-04T04:19:20.858Z,1025.14
2019-01-04T04:20:20.867Z,1025.11
2019-01-04T04:21:20.830Z,1025.10
2019-01-04T04:22:20.821Z,1025.11
2019-01-04T04:23:20.811Z,1025.02
2019-01-04T04:24:20.801Z,1025.01
2019-01-04T04:25:20.787Z,1025.08
2019-01-04T04:26:20.776Z,1025.07
2019-01-04T04:27:20.768Z,1025.05
2019-01-04T04:28:20.754Z,1025.02
2019-01-04T04:29:20.743Z,1024.99
2019-01-04T04:30:20.756Z,1025.05
2019-01-04T04:31:20.722Z,1025.05
2019-01-04T04:32:20.743Z,1025.10
2019-01-04T04:33:20.704Z,1025.10
2019-01-04T04:34:20.692Z,1025.08
2019-01-04T04:35:20.678Z,1025.09
2019-01-04T04:36:20.669Z,1025.15
2019-01-04T04:37:20.656Z,1025.10
2019-01-04T04:38:20.653Z,1025.11
2019-01-04T04:39:20.665Z,1025.16
2019-01-04T04:40:20.627Z,1025.16
2019-01-04T04:41:20.615Z,1025.14
2019-01-04T04:42:20.605Z,1025.18
2019-01-04T04:43:20.603Z,1025.20
2019-01-04T04:44:20.587Z,1025.11
2019-01-04T04:45:20.571Z,1025.03
2019-01-04T04:46:20.563Z,1024.96
2019-01-04T04:47:20.548Z,1025.00
2019-01-04T04:48:20.542Z,1024.94
2019-01-04T04:49:20.531Z,1024.95
2019-01-04T04:50:20.520Z,1024.97
2019-01-04T04:51:20.508Z,1025.01
2019-01-04T04:52:20.498Z,1024.97
2019-01-04T04:53:20.481Z,1024.95
2019-01-04T04:54:20.477Z,1024.92
2019-01-04T04:55:20.469Z,1024.93
2019-01-04T04:56:20.470Z,1024.95
2019-01-04T04:57:20.449Z,1024.93
2019-01-04T04:58:20.437Z,1024.85
2019-01-04T04:59:20.423Z,1024.81
2019-01-04T05:00:20.428Z,1024.85
2019-01-04T05:01:20.404Z,1024.86
2019-01-04T05:02:20.395Z,1024.90
2019-01-04T05:03:20.389Z,1024.90
2019-01-04T05:04:20.373Z,1024.89
2019-01-04T05:05:20.355Z,1024.90
2019-01-04T05:06:20.356Z,1024.87
2019-01-04T05:07:20.341Z,1024.83
2019-01-04T05:08:20.328Z,1024.85
2019-01-04T05:09:20.326Z,1024.88
2019-01-04T05:10:20.307Z,1024.85
2019-01-04T05:11:20.305Z,1024.81
2019-01-04T05:12:20.291Z,1024.83
2019-01-04T05:13:20.275Z,1024.81
2019-01-04T05:14:20.265Z,1024.83
2019-01-04T05:15:20.255Z,1024.82
2019-01-04T05:16:20.245Z,1024.80
2019-01-04T05:17:20.238Z,1024.79
2019-01-04T05:18:20.220Z,1024.79
2019-01-04T05:19:20.215Z,1024.72
2019-01-04T05:20:20.201Z,1024.73
2019-01-04T05:21:20.189Z,1024.76
2019-01-04T05:22:20.180Z,1024.77
2019-01-04T05:23:20.170Z,1024.77
2019-01-04T05:24:20.162Z,1024.77
2019-01-04T05:25:20.149Z,1024.78
2019-01-04T05:26:20.140Z,1024.75
2019-01-04T05:27:20.128Z,1024.79
2019-01-04T05:28:20.118Z,1024.80
2019-01-04T05:29:20.132Z,1024.81
2019-01-04T05:30:20.095Z,1024.85
2019-01-04T05:31:20.084Z,1024.84
2019-01-04T05:32:20.077Z,1024.88
2019-01-04T05:33:20.066Z,1024.83
2019-01-04T05:34:20.058Z,1024.79
2019-01-04T05:35:20.048Z,1024.71
2019-01-04T05:36:20.032Z,1024.69
2019-01-04T05:37:20.025Z,1024.68
2019-01-04T05:38:20.011Z,1024.67
2019-01-04T05:39:19.997Z,1024.70
2019-01-04T05:40:19.993Z,1024.63
2019-01-04T05:41:19.981Z,1024.56
2019-01-04T05:42:19.978Z,1024.59
2019-01-04T05:43:19.957Z,1024.52
2019-01-04T05:44:19.961Z,1024.47
2019-01-04T05:45:19.943Z,1024.47
2019-01-04T05:46:19.932Z,1024.53
2019-01-04T05:47:19.922Z,1024.47
2019-01-04T05:48:19.907Z,1024.48
2019-01-04T05:49:19.898Z,1024.50
2019-01-04T05:50:19.883Z,1024.52
2019-01-04T05:51:19.873Z,1024.47
2019-01-04T05:52:19.879Z,1024.47
2019-01-04T05:53:20.582Z,1024.43
2019-01-04T05:54:19.852Z,1024.40
2019-01-04T05:55:19.834Z,1024.33
2019-01-04T05:56:19.821Z,1024.37
2019-01-04T05:57:19.813Z,1024.27
2019-01-04T05:58:19.800Z,1024.30
2019-01-04T05:59:19.787Z,1024.25
2019-01-04T06:00:19.778Z,1024.28
2019-01-04T06:01:19.768Z,1024.28
2019-01-04T06:02:19.757Z,1024.29
2019-01-04T06:03:19.746Z,1024.25
2019-01-04T06:04:19.740Z,1024.31
2019-01-04T06:05:19.743Z,1024.26
2019-01-04T06:06:19.713Z,1024.30
2019-01-04T06:07:19.708Z,1024.34
2019-01-04T06:08:19.692Z,1024.27
2019-01-04T06:09:19.684Z,1024.36
2019-01-04T06:10:19.673Z,1024.36
2019-01-04T06:11:19.663Z,1024.33
2019-01-04T06:12:19.649Z,1024.36
2019-01-04T06:13:19.641Z,1024.35
2019-01-04T06:14:19.633Z,1024.33
2019-01-04T06:15:19.632Z,1024.36
2019-01-04T06:16:19.611Z,1024.35
2019-01-04T06:17:19.605Z,1024.33
2019-01-04T06:18:19.587Z,1024.28
2019-01-04T06:19:19.581Z,1024.24
2019-01-04T06:20:19.571Z,1024.27
2019-01-04T06:21:19.557Z,1024.18
2019-01-04T06:22:19.547Z,1024.14
2019-01-04T06:23:19.539Z,1024.08
2019-01-04T06:24:19.523Z,1024.01
2019-01-04T06:25:19.516Z,1023.97
2019-01-04T06:26:19.502Z,1024.06
2019-01-04T06:27:19.498Z,1023.96
2019-01-04T06:28:19.485Z,1023.93
2019-01-04T06:29:19.464Z,1023.93
2019-01-04T06:30:19.459Z,1023.90
2019-01-04T06:31:19.447Z,1023.90
2019-01-04T06:32:19.439Z,1023.90
2019-01-04T06:33:19.423Z,1023.97
2019-01-04T06:34:19.415Z,1024.02
2019-01-04T06:35:19.406Z,1024.06
2019-01-04T06:36:19.396Z,1024.08
2019-01-04T06:37:19.381Z,1024.08
2019-01-04T06:38:19.369Z,1024.07
2019-01-04T06:39:19.363Z,1024.01
2019-01-04T06:40:19.347Z,1023.99
2019-01-04T06:41:19.351Z,1024.00
2019-01-04T06:42:19.331Z,1024.04
2019-01-04T06:43:19.315Z,1024.02
2019-01-04T06:44:19.310Z,1024.02
2019-01-04T06:45:19.294Z,1023.97
2019-01-04T06:46:19.287Z,1023.94
2019-01-04T06:47:19.274Z,1023.95
2019-01-04T06:48:19.267Z,1023.97
2019-01-04T06:49:19.261Z,1023.98
2019-01-04T06:50:19.245Z,1023.97
2019-01-04T06:51:19.247Z,1023.94
2019-01-04T06:52:19.227Z,1023.90
2019-01-04T06:53:19.219Z,1023.89
2019-01-04T06:54:19.202Z,1023.88
2019-01-04T06:55:19.197Z,1023.91
2019-01-04T06:56:19.187Z,1023.95
2019-01-04T06:57:19.171Z,1023.97
2019-01-04T06:58:19.162Z,1023.95
2019-01-04T06:59:19.153Z,1023.90
2019-01-04T07:00:19.141Z,1023.86
2019-01-04T07:01:19.136Z,1023.87
2019-01-04T07:02:19.125Z,1023.86
2019-01-04T07:03:19.111Z,1023.83
2019-01-04T07:04:19.119Z,1023.72
2019-01-04T07:05:19.087Z,1023.72
2019-01-04T07:06:19.075Z,1023.80
2019-01-04T07:07:19.065Z,1023.83
2019-01-04T07:08:19.052Z,1023.86
2019-01-04T07:09:19.045Z,1023.80
2019-01-04T07:10:19.029Z,1023.83
2019-01-04T07:11:19.018Z,1023.85
2019-01-04T07:12:19.007Z,1023.84
2019-01-04T07:13:19.003Z,1023.83
2019-01-04T07:14:19.002Z,1023.80
2019-01-04T07:15:18.981Z,1023.79
2019-01-04T07:16:18.966Z,1023.75
2019-01-04T07:17:18.961Z,1023.75
2019-01-04T07:18:18.945Z,1023.66
2019-01-04T07:19:18.941Z,1023.65
2019-01-04T07:20:18.926Z,1023.60
2019-01-04T07:21:18.917Z,1023.56
2019-01-04T07:22:18.901Z,1023.55
2019-01-04T07:23:18.895Z,1023.56
2019-01-04T07:24:18.884Z,1023.57
2019-01-04T07:25:18.875Z,1023.51
2019-01-04T07:26:18.867Z,1023.57
2019-01-04T07:27:18.854Z,1023.58
2019-01-04T07:28:18.846Z,1023.54
2019-01-04T07:29:18.827Z,1023.50
2019-01-04T07:30:18.826Z,1023.49
2019-01-04T07:31:18.811Z,1023.52
2019-01-04T07:32:18.804Z,1023.50
2019-01-04T07:33:18.791Z,1023.47
2019-01-04T07:34:18.781Z,1023.52
2019-01-04T07:35:18.767Z,1023.57
2019-01-04T07:36:18.760Z,1023.48
2019-01-04T07:37:18.765Z,1023.48
2019-01-04T07:38:18.738Z,1023.52
2019-01-04T07:39:18.726Z,1023.40
2019-01-04T07:40:18.717Z,1023.48
2019-01-04T07:41:18.709Z,1023.43
2019-01-04T07:42:18.691Z,1023.43
2019-01-04T07:43:18.680Z,1023.46
2019-01-04T07:44:18.671Z,1023.41
2019-01-04T07:45:18.670Z,1023.49
2019-01-04T07:46:18.647Z,1023.47
2019-01-04T07:47:18.642Z,1023.45
2019-01-04T07:48:18.634Z,1023.47
2019-01-04T07:49:18.617Z,1023.51
2019-01-04T07:50:18.612Z,1023.48
2019-01-04T07:51:18.597Z,1023.46
2019-01-04T07:52:18.587Z,1023.47
2019-01-04T07:53:18.575Z,1023.40
2019-01-04T07:54:18.569Z,1023.36
2019-01-04T07:55:18.554Z,1023.30
2019-01-04T07:56:18.542Z,1023.34
2019-01-04T07:57:18.536Z,1023.33
2019-01-04T07:58:18.529Z,1023.31
2019-01-04T07:59:18.515Z,1023.32
2019-01-04T08:00:18.504Z,1023.24
2019-01-04T08:01:18.497Z,1023.28
2019-01-04T08:02:18.483Z,1023.25
2019-01-04T08:03:18.471Z,1023.25
2019-01-04T08:04:18.463Z,1023.22
2019-01-04T08:05:18.449Z,1023.22
2019-01-04T08:06:18.440Z,1023.21
2019-01-04T08:07:18.425Z,1023.15
2019-01-04T08:08:18.418Z,1023.15
2019-01-04T08:09:18.405Z,1023.15
2019-01-04T08:10:18.396Z,1023.14
2019-01-04T08:11:18.385Z,1023.16
2019-01-04T08:12:18.375Z,1023.11
2019-01-04T08:13:18.372Z,1023.10
2019-01-04T08:14:18.357Z,1023.07
2019-01-04T08:15:18.347Z,1023.04
2019-01-04T08:16:18.334Z,1023.05
2019-01-04T08:17:18.323Z,1023.02
2019-01-04T08:18:18.313Z,1023.00
2019-01-04T08:19:18.295Z,1022.99
2019-01-04T08:20:18.284Z,1022.92
2019-01-04T08:21:18.290Z,1022.97
2019-01-04T08:22:18.265Z,1022.94
2019-01-04T08:23:18.255Z,1022.94
2019-01-04T08:24:18.254Z,1022.98
2019-01-04T08:25:18.251Z,1022.95
2019-01-04T08:26:18.231Z,1022.99
2019-01-04T08:27:18.217Z,1022.93
2019-01-04T08:28:18.195Z,1022.86
2019-01-04T08:29:18.192Z,1022.99
2019-01-04T08:30:18.183Z,1022.95
2019-01-04T08:31:18.171Z,1023.01
2019-01-04T08:32:18.161Z,1022.94
2019-01-04T08:33:18.164Z,1022.88
2019-01-04T08:34:18.136Z,1022.86
2019-01-04T08:35:18.130Z,1022.79
2019-01-04T08:36:18.130Z,1022.90
2019-01-04T08:37:18.113Z,1022.93
2019-01-04T08:38:18.099Z,1022.96
2019-01-04T08:39:18.092Z,1022.89
2019-01-04T08:40:18.076Z,1022.94
2019-01-04T08:41:18.064Z,1022.81
2019-01-04T08:42:18.054Z,1022.90
2019-01-04T08:43:18.053Z,1022.87
2019-01-04T08:44:18.031Z,1022.79
2019-01-04T08:45:18.021Z,1022.80
2019-01-04T08:46:18.009Z,1022.84
2019-01-04T08:47:18.001Z,1022.81
2019-01-04T08:48:17.992Z,1022.82
2019-01-04T08:49:17.987Z,1022.77
2019-01-04T08:50:17.971Z,1022.77
2019-01-04T08:51:17.958Z,1022.82
2019-01-04T08:52:17.947Z,1022.75
2019-01-04T08:53:17.939Z,1022.72
2019-01-04T08:54:17.935Z,1022.71
2019-01-04T08:55:17.923Z,1022.73
2019-01-04T08:56:17.908Z,1022.74
2019-01-04T08:57:17.901Z,1022.72
2019-01-04T08:58:17.896Z,1022.74
2019-01-04T08:59:17.887Z,1022.74
2019-01-04T09:00:17.874Z,1022.75
2019-01-04T09:01:17.859Z,1022.73
2019-01-04T09:02:17.844Z,1022.71
2019-01-04T09:03:17.834Z,1022.74
2019-01-04T09:04:17.825Z,1022.68
2019-01-04T09:05:17.816Z,1022.64
2019-01-04T09:06:17.801Z,1022.59
2019-01-04T09:07:17.789Z,1022.59
2019-01-04T09:08:17.778Z,1022.61
2019-01-04T09:09:17.767Z,1022.53
2019-01-04T09:10:17.757Z,1022.55
2019-01-04T09:11:17.750Z,1022.56
2019-01-04T09:12:17.747Z,1022.39
2019-01-04T09:13:17.729Z,1022.38
2019-01-04T09:14:17.723Z,1022.35
2019-01-04T09:15:17.707Z,1022.28
2019-01-04T09:16:17.697Z,1022.27
2019-01-04T09:17:17.694Z,1022.26
2019-01-04T09:18:17.672Z,1022.28
2019-01-04T09:19:17.668Z,1022.30
2019-01-04T09:20:17.664Z,1022.32
2019-01-04T09:21:17.638Z,1022.28
2019-01-04T09:22:17.654Z,1022.20
2019-01-04T09:23:17.624Z,1022.23
2019-01-04T09:24:17.611Z,1022.23
2019-01-04T09:25:17.600Z,1022.24
2019-01-04T09:26:17.591Z,1022.19
2019-01-04T09:27:17.580Z,1022.15
2019-01-04T09:28:18.117Z,1022.12
2019-01-04T09:29:17.559Z,1022.11
2019-01-04T09:30:17.547Z,1022.13
2019-01-04T09:31:17.534Z,1022.21
2019-01-04T09:32:17.538Z,1022.17
2019-01-04T09:33:17.518Z,1022.14
2019-01-04T09:34:17.509Z,1022.15
2019-01-04T09:35:17.496Z,1022.15
2019-01-04T09:36:17.489Z,1022.10
2019-01-04T09:37:17.476Z,1022.11
2019-01-04T09:38:17.465Z,1022.13
2019-01-04T09:39:17.452Z,1021.96
2019-01-04T09:40:17.447Z,1022.03
2019-01-04T09:41:17.441Z,1021.98
2019-01-04T09:42:17.425Z,1021.95
2019-01-04T09:43:17.409Z,1021.94
2019-01-04T09:44:17.423Z,1021.91
2019-01-04T09:45:17.397Z,1021.95
2019-01-04T09:46:17.387Z,1021.87
2019-01-04T09:47:17.367Z,1021.77
2019-01-04T09:48:17.360Z,1021.78
2019-01-04T09:49:17.365Z,1021.74
2019-01-04T09:50:17.337Z,1021.72
2019-01-04T09:51:17.328Z,1021.68
2019-01-04T09:52:17.315Z,1021.61
2019-01-04T09:53:17.304Z,1021.62
2019-01-04T09:54:17.301Z,1021.63
2019-01-04T09:55:17.283Z,1021.56
2019-01-04T09:56:17.279Z,1021.55
2019-01-04T09:57:23.323Z,1021.55
2019-01-04T09:58:18.252Z,1021.55
2019-01-04T09:59:17.243Z,1021.54
2019-01-04T10:00:17.232Z,1021.59
2019-01-04T10:01:17.223Z,1021.51
2019-01-04T10:02:17.217Z,1021.55
2019-01-04T10:03:17.197Z,1021.53
2019-01-04T10:04:17.190Z,1021.47
2019-01-04T10:05:17.177Z,1021.45
2019-01-04T10:06:17.167Z,1021.43
2019-01-04T10:07:17.165Z,1021.40
2019-01-04T10:08:17.156Z,1021.40
2019-01-04T10:09:17.139Z,1021.41
2019-01-04T10:10:17.125Z,1021.37
2019-01-04T10:11:17.112Z,1021.38
2019-01-04T10:12:17.105Z,1021.36
2019-01-04T10:13:17.097Z,1021.35
2019-01-04T10:14:17.076Z,1021.31
2019-01-04T10:15:17.071Z,1021.30
2019-01-04T10:16:17.064Z,1021.29
2019-01-04T10:17:17.080Z,1021.17
2019-01-04T10:18:17.036Z,1021.26
2019-01-04T10:19:17.026Z,1021.21
2019-01-04T10:20:17.028Z,1021.22
2019-01-04T10:21:17.008Z,1021.19
2019-01-04T10:22:16.996Z,1021.12
2019-01-04T10:23:17.004Z,1021.13
2019-01-04T10:24:16.984Z,1021.08
2019-01-04T10:25:17.000Z,1021.12
2019-01-04T10:26:16.954Z,1021.08
2019-01-04T10:27:16.944Z,1021.10
2019-01-04T10:28:16.937Z,1021.03
2019-01-04T10:29:16.920Z,1021.06
2019-01-04T10:30:16.940Z,1021.01
2019-01-04T10:31:16.896Z,1021.04
2019-01-04T10:32:16.893Z,1020.92
2019-01-04T10:33:16.880Z,1020.82
2019-01-04T10:34:16.867Z,1020.81
2019-01-04T10:35:16.923Z,1020.83
2019-01-04T10:36:16.852Z,1020.80
2019-01-04T10:37:16.841Z,1020.69
2019-01-04T10:38:16.856Z,1020.71
2019-01-04T10:39:16.815Z,1020.64
2019-01-04T10:40:16.803Z,1020.67
2019-01-04T10:41:16.795Z,1020.63
2019-01-04T10:42:16.784Z,1020.62
2019-01-04T10:43:16.774Z,1020.60
2019-01-04T10:44:16.761Z,1020.63
2019-01-04T10:45:16.763Z,1020.51
2019-01-04T10:46:16.743Z,1020.52
2019-01-04T10:47:16.733Z,1020.41
2019-01-04T10:48:16.725Z,1020.37
2019-01-04T10:49:16.713Z,1020.42
2019-01-04T10:50:16.690Z,1020.30
2019-01-04T10:51:16.691Z,1020.28
2019-01-04T10:52:16.682Z,1020.23
2019-01-04T10:53:16.686Z,1020.19
2019-01-04T10:54:16.655Z,1020.20
2019-01-04T10:55:16.646Z,1020.16
2019-01-04T10:56:16.639Z,1020.10
2019-01-04T10:57:16.656Z,1020.06
2019-01-04T10:58:16.611Z,1019.99
2019-01-04T10:59:16.609Z,1020.09
2019-01-04T11:00:16.589Z,1020.09
2019-01-04T11:01:16.583Z,1019.99
2019-01-04T11:02:16.573Z,1019.97
2019-01-04T11:03:16.560Z,1019.91
2019-01-04T11:04:16.545Z,1019.91
2019-01-04T11:05:16.541Z,1019.89
2019-01-04T11:06:16.541Z,1019.87
2019-01-04T11:07:16.527Z,1019.79
2019-01-04T11:08:16.511Z,1019.69
2019-01-04T11:09:16.505Z,1019.72
2019-01-04T11:10:16.494Z,1019.68
2019-01-04T11:11:16.478Z,1019.65
2019-01-04T11:12:16.471Z,1019.66
2019-01-04T11:13:16.448Z,1019.61
2019-01-04T11:14:16.447Z,1019.54
2019-01-04T11:15:16.435Z,1019.56
2019-01-04T11:16:16.453Z,1019.44
2019-01-04T11:17:16.411Z,1019.45
2019-01-04T11:18:16.397Z,1019.45
2019-01-04T11:19:16.388Z,1019.42
2019-01-04T11:20:16.383Z,1019.48
2019-01-04T11:21:16.378Z,1019.47
2019-01-04T11:22:16.361Z,1019.51
2019-01-04T11:23:16.348Z,1019.48
2019-01-04T11:24:16.339Z,1019.56
2019-01-04T11:25:16.333Z,1019.43
2019-01-04T11:26:16.315Z,1019.47
2019-01-04T11:27:16.304Z,1019.37
2019-01-04T11:28:16.293Z,1019.44
2019-01-04T11:29:16.291Z,1019.38
2019-01-04T11:30:16.271Z,1019.36
2019-01-04T11:31:16.261Z,1019.31
2019-01-04T11:32:16.252Z,1019.32
2019-01-04T11:33:16.238Z,1019.29
2019-01-04T11:34:16.231Z,1019.25
2019-01-04T11:35:16.228Z,1019.19
2019-01-04T11:36:16.205Z,1019.14
2019-01-04T11:37:16.203Z,1019.03
2019-01-04T11:38:16.183Z,1019.04
2019-01-04T11:39:16.215Z,1018.96
2019-01-04T11:40:16.173Z,1018.94
2019-01-04T11:41:16.515Z,1018.86
2019-01-04T11:42:16.156Z,1018.74
2019-01-04T11:43:16.138Z,1018.75
2019-01-04T11:44:16.121Z,1018.79
2019-01-04T11:45:16.113Z,1018.71
2019-01-04T11:46:16.112Z,1018.72
2019-01-04T11:47:20.136Z,1018.61
2019-01-04T11:48:16.163Z,1018.62
2019-01-04T11:49:16.068Z,1018.56
2019-01-04T11:50:16.061Z,1018.52
2019-01-04T11:51:16.051Z,1018.51
2019-01-04T11:52:16.057Z,1018.52
2019-01-04T11:53:16.027Z,1018.53
2019-01-04T11:54:16.025Z,1018.52
2019-01-04T11:55:16.009Z,1018.52
2019-01-04T11:56:15.991Z,1018.37
2019-01-04T11:57:15.983Z,1018.40
2019-01-04T11:58:15.977Z,1018.36
2019-01-04T11:59:15.968Z,1018.28
2019-01-04T12:00:15.959Z,1018.29
2019-01-04T12:01:15.945Z,1018.27
2019-01-04T12:02:15.934Z,1018.28
2019-01-04T12:03:15.918Z,1018.24
2019-01-04T12:04:15.913Z,1018.16
2019-01-04T12:05:15.916Z,1018.21